createdAt,value
2022-08-25T00:00:19.562Z,69.78
2022-08-25T00:02:54.985Z,69.71
2022-08-25T00:05:26.255Z,70.37
2022-08-25T00:07:54.633Z,69.63
2022-08-25T00:10:21.779Z,69.48
2022-08-25T00:12:55.071Z,70.13
2022-08-25T00:15:22.900Z,69.76
2022-08-25T00:17:50.683Z,69.63
2022-08-25T00:20:18.189Z,70.11
2022-08-25T00:22:49.010Z,70.35
2022-08-25T00:25:17.480Z,70.44
2022-08-25T00:27:45.922Z,70.53
2022-08-25T00:33:04.625Z,70.65
2022-08-25T00:35:31.874Z,70.31
2022-08-25T00:37:59.803Z,71.42
2022-08-25T00:40:28.808Z,70.92
2022-08-25T00:42:56.797Z,71.51
2022-08-25T00:45:27.114Z,71.48
2022-08-25T00:48:00.057Z,71.74
2022-08-25T00:50:29.936Z,71.74
2022-08-25T00:53:01.001Z,72.03
2022-08-25T00:55:36.887Z,72.60
2022-08-25T00:58:15.465Z,72.73
2022-08-25T01:00:48.547Z,72.30
2022-08-25T01:03:19.131Z,72.13
2022-08-25T01:05:46.641Z,73.17
2022-08-25T01:08:16.280Z,73.38
2022-08-25T01:10:46.257Z,74.17
2022-08-25T01:13:28.997Z,73.90
2022-08-25T01:16:00.035Z,74.20
2022-08-25T01:18:28.517Z,74.26
2022-08-25T01:20:57.906Z,74.63
2022-08-25T01:23:26.268Z,74.32
2022-08-25T01:26:07.786Z,74.74
2022-08-25T01:28:35.961Z,75.43
2022-08-25T01:31:23.825Z,75.36
2022-08-25T01:33:56.321Z,75.40
2022-08-25T01:36:25.648Z,75.38
2022-08-25T01:38:52.673Z,75.33
2022-08-25T01:41:48.405Z,76.15
2022-08-25T01:44:19.274Z,76.70
2022-08-25T01:46:46.442Z,76.25
2022-08-25T01:49:15.829Z,77.18
2022-08-25T01:52:00.058Z,76.98
2022-08-25T01:54:29.050Z,76.85
2022-08-25T01:57:01.622Z,76.70
2022-08-25T01:59:28.744Z,76.82
2022-08-25T02:01:59.670Z,76.77
2022-08-25T02:04:32.054Z,76.61
2022-08-25T02:07:04.830Z,76.78
2022-08-25T02:09:35.198Z,76.39
2022-08-25T02:12:02.440Z,76.72
2022-08-25T02:14:29.379Z,76.40
2022-08-25T02:16:57.216Z,76.11
2022-08-25T02:19:25.975Z,75.86
2022-08-25T02:21:53.372Z,76.41
2022-08-25T02:24:20.324Z,76.33
2022-08-25T02:26:50.530Z,76.58
2022-08-25T02:29:20.465Z,77.02
2022-08-25T02:31:47.491Z,77.08
2022-08-25T02:34:15.225Z,76.89
2022-08-25T02:36:43.695Z,77.06
2022-08-25T02:39:14.263Z,77.32
2022-08-25T02:41:43.556Z,77.56
2022-08-25T02:44:10.600Z,78.36
2022-08-25T02:46:38.310Z,80.08
2022-08-25T02:49:06.813Z,78.74
2022-08-25T02:51:38.871Z,77.52
2022-08-25T02:54:07.118Z,77.65
2022-08-25T02:56:34.178Z,77.20
2022-08-25T02:59:02.244Z,77.08
2022-08-25T03:01:30.159Z,76.81
2022-08-25T03:03:57.809Z,76.42
2022-08-25T03:06:25.650Z,76.58
2022-08-25T03:08:53.248Z,77.53
2022-08-25T03:11:24.063Z,78.34
2022-08-25T03:13:53.989Z,78.51
2022-08-25T03:16:21.523Z,79.06
2022-08-25T03:18:49.419Z,79.24
2022-08-25T03:21:17.601Z,78.64
2022-08-25T03:23:48.664Z,79.61
2022-08-25T03:26:36.509Z,79.41
2022-08-25T03:29:06.949Z,79.50
2022-08-25T03:31:37.496Z,79.44
2022-08-25T03:34:04.708Z,78.70
2022-08-25T03:36:32.024Z,78.40
2022-08-25T03:39:00.497Z,78.25
2022-08-25T03:41:32.831Z,78.76
2022-08-25T03:44:00.889Z,79.37
2022-08-25T03:46:32.751Z,79.56
2022-08-25T03:49:02.950Z,79.19
2022-08-25T03:51:40.626Z,78.88
2022-08-25T03:54:08.606Z,78.82
2022-08-25T03:56:35.983Z,79.05
2022-08-25T03:59:06.095Z,80.55
2022-08-25T04:01:36.602Z,80.15
2022-08-25T04:04:12.087Z,80.62
2022-08-25T04:06:40.462Z,80.92
2022-08-25T04:09:08.239Z,80.34
2022-08-25T04:11:35.279Z,81.47
2022-08-25T04:14:03.353Z,81.21
2022-08-25T04:16:34.290Z,81.00
2022-08-25T04:19:09.414Z,81.49
2022-08-25T04:21:39.147Z,81.96
2022-08-25T04:24:08.733Z,81.86
2022-08-25T04:26:42.542Z,80.85
2022-08-25T04:29:11.847Z,80.81
2022-08-25T04:31:44.466Z,80.60
2022-08-25T04:34:28.446Z,82.13
2022-08-25T04:37:01.375Z,81.22
2022-08-25T04:39:28.620Z,80.99
2022-08-25T04:41:55.858Z,81.44
2022-08-25T04:44:27.515Z,80.93
2022-08-25T04:46:57.601Z,80.04
2022-08-25T04:49:24.666Z,80.59
2022-08-25T04:51:51.597Z,80.25
2022-08-25T04:54:22.028Z,79.65
2022-08-25T04:56:58.097Z,79.95
2022-08-25T04:59:30.937Z,80.38
2022-08-25T05:02:02.365Z,79.79
2022-08-25T05:04:34.822Z,79.77
2022-08-25T05:07:04.288Z,79.34
2022-08-25T05:09:37.697Z,78.38
2022-08-25T05:12:05.508Z,78.89
2022-08-25T05:14:33.534Z,79.65
2022-08-25T05:17:01.494Z,79.77
2022-08-25T05:19:30.549Z,80.25
2022-08-25T05:22:00.463Z,81.08
2022-08-25T05:24:30.114Z,81.42
2022-08-25T05:27:01.730Z,81.29
2022-08-25T05:29:28.658Z,81.37
2022-08-25T05:31:58.643Z,82.40
2022-08-25T05:34:25.737Z,82.38
2022-08-25T05:36:53.046Z,83.08
2022-08-25T05:39:22.303Z,83.24
2022-08-25T05:41:54.776Z,83.19
2022-08-25T05:44:21.705Z,84.45
2022-08-25T05:46:48.864Z,85.04
2022-08-25T05:49:15.798Z,84.19
2022-08-25T05:51:42.672Z,84.15
2022-08-25T05:54:09.566Z,83.91
2022-08-25T05:56:40.099Z,83.43
2022-08-25T05:59:09.907Z,82.55
2022-08-25T06:02:00.156Z,82.70
2022-08-25T06:04:29.264Z,82.58
2022-08-25T06:06:58.666Z,82.08
2022-08-25T06:09:26.391Z,82.21
2022-08-25T06:11:55.221Z,82.57
2022-08-25T06:14:23.943Z,84.00
2022-08-25T06:16:53.577Z,85.16
2022-08-25T06:19:25.766Z,84.94
2022-08-25T06:21:57.720Z,84.24
2022-08-25T06:24:27.391Z,83.17
2022-08-25T06:26:57.934Z,82.73
2022-08-25T06:29:25.322Z,83.56
2022-08-25T06:31:52.682Z,83.62
2022-08-25T06:34:24.172Z,83.12
2022-08-25T06:36:53.738Z,83.44
2022-08-25T06:39:21.913Z,83.69
2022-08-25T06:41:54.929Z,81.94
2022-08-25T06:44:28.184Z,82.62
2022-08-25T06:46:57.652Z,81.18
2022-08-25T06:49:31.918Z,82.05
2022-08-25T06:52:04.212Z,82.03
2022-08-25T06:54:35.716Z,81.49
2022-08-25T06:57:06.801Z,83.97
2022-08-25T06:59:37.861Z,83.88
2022-08-25T07:02:08.732Z,86.79
2022-08-25T07:04:40.767Z,87.81
2022-08-25T07:07:10.000Z,87.33
2022-08-25T07:09:41.508Z,85.07
2022-08-25T07:12:11.160Z,83.78
2022-08-25T07:14:44.253Z,85.63
2022-08-25T07:17:23.594Z,84.44
2022-08-25T07:19:51.835Z,84.74
2022-08-25T07:22:25.065Z,83.95
2022-08-25T07:24:56.705Z,84.05
2022-08-25T07:27:23.656Z,84.58
2022-08-25T07:29:50.552Z,84.92
2022-08-25T07:32:20.061Z,84.28
2022-08-25T07:35:06.223Z,83.06
2022-08-25T07:40:30.136Z,82.75
2022-08-25T07:43:01.046Z,82.36
2022-08-25T07:45:33.389Z,82.76
2022-08-25T07:48:09.914Z,84.06
2022-08-25T07:50:42.462Z,84.19
2022-08-25T07:53:15.259Z,84.15
2022-08-25T07:55:47.230Z,83.20
2022-08-25T07:58:19.405Z,80.90
2022-08-25T08:00:53.128Z,80.24
2022-08-25T08:03:44.570Z,79.57
2022-08-25T08:06:16.773Z,79.89
2022-08-25T08:08:51.054Z,79.65
2022-08-25T08:11:41.473Z,78.27
2022-08-25T08:14:16.482Z,77.64
2022-08-25T08:16:46.907Z,77.87
2022-08-25T08:19:13.813Z,78.35
2022-08-25T08:21:43.461Z,78.38
2022-08-25T08:24:25.149Z,79.26
2022-08-25T08:26:59.617Z,80.95
2022-08-25T08:29:27.646Z,81.65
2022-08-25T08:31:54.564Z,80.90
2022-08-25T08:34:24.932Z,80.80
2022-08-25T08:36:52.983Z,79.88
2022-08-25T08:39:23.179Z,77.85
2022-08-25T08:42:17.296Z,77.31
2022-08-25T08:44:50.752Z,76.46
2022-08-25T08:47:52.891Z,78.64
2022-08-25T08:50:37.987Z,79.29
2022-08-25T08:53:39.766Z,78.55
2022-08-25T08:56:30.896Z,76.88
2022-08-25T08:59:12.097Z,73.75
2022-08-25T09:01:54.326Z,73.81
2022-08-25T09:04:33.993Z,72.39
2022-08-25T09:07:11.665Z,73.34
2022-08-25T09:09:44.198Z,72.37
2022-08-25T09:12:48.165Z,72.25
2022-08-25T09:15:54.829Z,71.05
2022-08-25T09:18:51.537Z,70.42
2022-08-25T09:21:35.221Z,69.92
2022-08-25T09:24:39.633Z,68.46
2022-08-25T09:27:29.856Z,67.32
2022-08-25T09:30:21.493Z,66.83
2022-08-25T09:33:05.115Z,67.07
2022-08-25T09:35:37.578Z,65.87
2022-08-25T09:38:09.258Z,61.96
2022-08-25T09:40:40.712Z,60.64
2022-08-25T09:43:52.646Z,57.75
2022-08-25T09:46:31.864Z,54.56
2022-08-25T09:49:16.715Z,54.98
2022-08-25T09:51:46.437Z,52.61
2022-08-25T09:54:13.784Z,51.71
2022-08-25T09:56:55.966Z,51.66
2022-08-25T09:59:35.169Z,52.84
2022-08-25T10:02:18.041Z,51.09
2022-08-25T10:04:47.792Z,51.55
2022-08-25T10:07:26.921Z,50.74
2022-08-25T10:10:01.812Z,49.06
2022-08-25T10:12:42.818Z,51.37
2022-08-25T10:15:37.084Z,49.14
2022-08-25T10:18:32.515Z,48.82
2022-08-25T10:21:10.439Z,47.15
2022-08-25T10:23:44.908Z,44.91
2022-08-25T10:26:23.678Z,43.46
2022-08-25T10:29:25.139Z,42.01
2022-08-25T10:32:27.580Z,40.93
2022-08-25T10:35:03.458Z,40.04
2022-08-25T10:38:06.056Z,39.67
2022-08-25T10:40:58.311Z,40.32
2022-08-25T10:43:38.036Z,40.07
2022-08-25T10:47:02.672Z,40.71
2022-08-25T10:49:41.953Z,41.09
2022-08-25T10:52:21.500Z,41.26
2022-08-25T10:54:59.170Z,43.47
2022-08-25T10:57:56.447Z,43.17
2022-08-25T11:00:35.305Z,42.26
2022-08-25T11:03:35.423Z,40.16
2022-08-25T11:06:37.594Z,38.87
2022-08-25T11:09:15.394Z,37.36
2022-08-25T11:12:01.472Z,37.31
2022-08-25T11:14:36.282Z,36.63
2022-08-25T11:17:26.941Z,37.37
2022-08-25T11:20:06.335Z,37.92
2022-08-25T11:22:52.469Z,38.10
2022-08-25T11:25:41.098Z,39.74
2022-08-25T11:28:18.898Z,41.55
2022-08-25T11:30:46.432Z,44.38
2022-08-25T11:33:17.432Z,44.30
2022-08-25T11:35:58.610Z,43.10
2022-08-25T11:39:10.863Z,40.75
2022-08-25T11:42:07.451Z,40.93
2022-08-25T11:45:25.491Z,42.43
2022-08-25T11:48:01.220Z,43.72
2022-08-25T11:50:31.742Z,43.52
2022-08-25T11:53:30.803Z,44.92
2022-08-25T11:56:12.610Z,44.34
2022-08-25T11:58:53.791Z,42.28
2022-08-25T12:01:40.076Z,40.16
2022-08-25T12:04:44.228Z,37.28
2022-08-25T12:07:18.798Z,37.19
2022-08-25T12:09:51.935Z,36.65
2022-08-25T12:12:44.196Z,36.67
2022-08-25T12:15:34.889Z,37.97
2022-08-25T12:18:11.254Z,35.85
2022-08-25T12:20:53.730Z,35.45
2022-08-25T12:24:06.833Z,34.42
2022-08-25T12:26:49.338Z,34.88
2022-08-25T12:29:31.581Z,36.00
2022-08-25T12:32:07.268Z,37.59
2022-08-25T12:34:54.311Z,37.87
2022-08-25T12:37:28.834Z,39.28
2022-08-25T12:40:04.239Z,39.17
2022-08-25T12:42:44.140Z,39.03
2022-08-25T12:45:30.347Z,37.64
2022-08-25T12:48:29.464Z,36.19
2022-08-25T12:51:03.668Z,35.36
2022-08-25T12:53:45.506Z,38.58
2022-08-25T12:56:39.446Z,38.73
2022-08-25T12:59:38.805Z,40.42
2022-08-25T13:02:36.770Z,39.07
2022-08-25T13:06:00.289Z,39.16
2022-08-25T13:08:46.588Z,39.41
2022-08-25T13:11:39.498Z,39.62
2022-08-25T13:14:20.310Z,38.71
2022-08-25T13:17:01.199Z,37.44
2022-08-25T13:19:34.771Z,37.33
2022-08-25T13:22:16.403Z,36.24
2022-08-25T13:24:47.424Z,38.19
2022-08-25T13:27:27.100Z,38.50
2022-08-25T13:30:04.710Z,39.10
2022-08-25T13:32:39.801Z,39.28
2022-08-25T13:35:32.933Z,38.96
2022-08-25T13:38:17.862Z,39.38
2022-08-25T13:40:45.020Z,39.17
2022-08-25T13:43:17.128Z,38.64
2022-08-25T13:45:47.606Z,38.51
2022-08-25T13:48:38.442Z,38.94
2022-08-25T13:51:24.405Z,37.70
2022-08-25T13:54:05.964Z,37.98
2022-08-25T13:56:40.560Z,38.18
2022-08-25T13:59:20.576Z,38.73
2022-08-25T14:01:50.115Z,38.42
2022-08-25T14:04:52.948Z,40.09
2022-08-25T14:07:20.855Z,39.84
2022-08-25T14:09:54.563Z,39.88
2022-08-25T14:12:45.463Z,40.74
2022-08-25T14:15:18.150Z,39.87
2022-08-25T14:18:00.846Z,39.74
2022-08-25T14:20:32.277Z,39.91
2022-08-25T14:23:10.042Z,39.83
2022-08-25T14:25:42.384Z,39.95
2022-08-25T14:28:19.722Z,38.69
2022-08-25T14:30:54.987Z,38.56
2022-08-25T14:33:31.533Z,39.41
2022-08-25T14:36:02.822Z,41.78
2022-08-25T14:38:35.293Z,41.66
2022-08-25T14:43:34.600Z,42.34
2022-08-25T14:46:14.565Z,42.83
2022-08-25T14:48:48.935Z,41.71
2022-08-25T14:51:16.591Z,41.83
2022-08-25T14:53:46.616Z,41.86
2022-08-25T14:56:16.121Z,41.88
2022-08-25T14:58:48.305Z,42.43
2022-08-25T15:01:29.374Z,43.35
2022-08-25T15:04:19.975Z,42.47
2022-08-25T15:06:57.932Z,43.02
2022-08-25T15:09:25.767Z,41.73
2022-08-25T15:12:00.432Z,41.44
2022-08-25T15:14:29.082Z,40.14
2022-08-25T15:17:02.186Z,41.53
2022-08-25T15:19:31.915Z,42.22
2022-08-25T15:21:59.257Z,42.92
2022-08-25T15:24:28.254Z,43.42
2022-08-25T15:27:05.100Z,42.74
2022-08-25T15:29:38.305Z,41.59
2022-08-25T15:32:07.626Z,41.75
2022-08-25T15:34:36.580Z,43.19
2022-08-25T15:37:12.349Z,43.90
2022-08-25T15:39:40.936Z,42.33
2022-08-25T15:42:10.276Z,42.44
2022-08-25T15:44:39.760Z,42.35
2022-08-25T15:47:12.594Z,42.38
2022-08-25T15:49:43.140Z,42.37
2022-08-25T15:52:10.149Z,42.91
2022-08-25T15:54:37.108Z,43.70
2022-08-25T15:57:04.591Z,43.57
2022-08-25T15:59:41.592Z,42.67
2022-08-25T16:02:15.276Z,42.67
2022-08-25T16:04:45.369Z,42.44
2022-08-25T16:07:15.455Z,42.65
2022-08-25T16:09:42.364Z,42.55
2022-08-25T16:12:11.086Z,44.01
2022-08-25T16:14:44.538Z,44.23
2022-08-25T16:17:15.475Z,42.77
2022-08-25T16:19:48.308Z,43.47
2022-08-25T16:22:15.738Z,44.25
2022-08-25T16:24:46.591Z,44.40
2022-08-25T16:27:19.283Z,45.04
2022-08-25T16:29:46.260Z,44.54
2022-08-25T16:32:19.172Z,44.76
2022-08-25T16:34:46.352Z,44.90
2022-08-25T16:37:17.023Z,45.79
2022-08-25T16:39:48.438Z,44.77
2022-08-25T16:42:17.680Z,44.49
2022-08-25T16:44:47.004Z,45.04
2022-08-25T16:47:20.392Z,44.87
2022-08-25T16:49:54.664Z,44.48
2022-08-25T16:52:40.670Z,44.29
2022-08-25T16:55:14.386Z,44.41
2022-08-25T16:57:54.231Z,45.47
2022-08-25T17:00:28.332Z,45.02
2022-08-25T17:02:59.471Z,44.39
2022-08-25T17:05:29.232Z,44.54
2022-08-25T17:08:20.212Z,44.78
2022-08-25T17:10:47.520Z,44.89
2022-08-25T17:13:14.835Z,44.49
2022-08-25T17:15:48.872Z,44.77
2022-08-25T17:18:19.413Z,44.59
2022-08-25T17:20:48.547Z,45.37
2022-08-25T17:23:18.102Z,45.38
2022-08-25T17:25:52.317Z,46.07
2022-08-25T17:28:19.203Z,45.98
2022-08-25T17:30:52.070Z,46.20
2022-08-25T17:33:24.099Z,46.86
2022-08-25T17:36:00.386Z,47.35
2022-08-25T17:38:30.159Z,47.36
2022-08-25T17:41:09.446Z,46.92
2022-08-25T17:43:41.832Z,47.72
2022-08-25T17:46:10.211Z,47.09
2022-08-25T17:48:43.844Z,47.46
2022-08-25T17:51:11.857Z,47.71
2022-08-25T17:53:41.337Z,47.50
2022-08-25T17:56:14.043Z,47.34
2022-08-25T17:58:42.699Z,47.88
2022-08-25T18:01:18.306Z,47.60
2022-08-25T18:03:45.319Z,47.21
2022-08-25T18:06:16.002Z,47.37
2022-08-25T18:08:51.639Z,47.72
2022-08-25T18:11:23.610Z,47.69
2022-08-25T18:13:53.644Z,47.49
2022-08-25T18:16:23.752Z,47.99
2022-08-25T18:18:52.892Z,48.20
2022-08-25T18:21:25.537Z,48.42
2022-08-25T18:24:03.229Z,48.32
2022-08-25T18:26:32.805Z,49.04
2022-08-25T18:29:04.492Z,48.84
2022-08-25T18:31:32.212Z,48.92
2022-08-25T18:33:59.330Z,49.26
2022-08-25T18:36:26.311Z,49.78
2022-08-25T18:39:14.660Z,50.17
2022-08-25T18:41:45.052Z,50.55
2022-08-25T18:44:15.719Z,49.88
2022-08-25T18:46:45.484Z,50.51
2022-08-25T18:49:17.117Z,50.82
2022-08-25T18:51:46.125Z,51.35
2022-08-25T18:54:23.417Z,51.93
2022-08-25T18:56:53.000Z,51.36
2022-08-25T18:59:23.747Z,51.86
2022-08-25T19:02:02.643Z,52.26
2022-08-25T19:04:32.464Z,52.08
2022-08-25T19:07:01.881Z,52.19
2022-08-25T19:09:33.541Z,52.41
2022-08-25T19:12:00.687Z,53.11
2022-08-25T19:14:30.868Z,52.97
2022-08-25T19:16:58.818Z,53.10
2022-08-25T19:19:27.321Z,53.74
2022-08-25T19:21:54.370Z,53.30
2022-08-25T19:24:21.634Z,53.40
2022-08-25T19:26:54.507Z,53.88
2022-08-25T19:29:25.163Z,54.21
2022-08-25T19:31:54.972Z,53.89
2022-08-25T19:34:30.431Z,54.07
2022-08-25T19:37:00.747Z,54.26
2022-08-25T19:39:33.871Z,55.38
2022-08-25T19:42:03.682Z,55.25
2022-08-25T19:44:32.036Z,55.21
2022-08-25T19:47:01.704Z,54.77
2022-08-25T19:49:35.469Z,55.25
2022-08-25T19:52:10.541Z,55.70
2022-08-25T19:54:45.815Z,55.95
2022-08-25T19:57:28.211Z,55.73
2022-08-25T20:00:07.647Z,56.25
2022-08-25T20:02:34.683Z,56.44
2022-08-25T20:05:05.336Z,55.88
2022-08-25T20:07:35.542Z,55.99
2022-08-25T20:10:04.156Z,56.38
2022-08-25T20:12:35.491Z,57.36
2022-08-25T20:15:06.526Z,57.63
2022-08-25T20:17:33.597Z,58.06
2022-08-25T20:20:04.842Z,58.53
2022-08-25T20:22:33.635Z,58.88
2022-08-25T20:25:26.391Z,58.72
2022-08-25T20:27:57.321Z,58.71
2022-08-25T20:30:29.493Z,58.77
2022-08-25T20:32:58.137Z,58.25
2022-08-25T20:35:28.319Z,58.60
2022-08-25T20:37:58.133Z,58.80
2022-08-25T20:40:27.886Z,59.21
2022-08-25T20:43:02.938Z,59.29
2022-08-25T20:45:30.112Z,59.16
2022-08-25T20:47:57.303Z,59.49
2022-08-25T20:50:24.602Z,59.64
2022-08-25T20:52:56.695Z,60.29
2022-08-25T20:55:24.313Z,60.20
2022-08-25T20:57:52.305Z,60.49
2022-08-25T21:00:20.203Z,61.33
2022-08-25T21:02:55.005Z,61.21
2022-08-25T21:05:25.033Z,61.28
2022-08-25T21:07:51.963Z,61.23
2022-08-25T21:10:18.978Z,60.81
2022-08-25T21:12:45.861Z,61.12
2022-08-25T21:15:18.130Z,61.35
2022-08-25T21:17:50.678Z,61.49
2022-08-25T21:20:18.370Z,61.26
2022-08-25T21:22:47.694Z,61.01
2022-08-25T21:25:14.842Z,61.41
2022-08-25T21:27:43.431Z,62.10
2022-08-25T21:30:13.974Z,61.80
2022-08-25T21:32:53.193Z,62.24
2022-08-25T21:35:29.539Z,61.96
2022-08-25T21:37:58.971Z,61.84
2022-08-25T21:40:26.254Z,61.80
2022-08-25T21:42:53.185Z,61.94
2022-08-25T21:45:21.783Z,62.05
2022-08-25T21:47:51.887Z,62.24
2022-08-25T21:50:19.781Z,62.09
2022-08-25T21:52:46.781Z,62.33
2022-08-25T21:55:15.950Z,62.15
2022-08-25T21:57:43.752Z,62.99
2022-08-25T22:00:13.254Z,63.52
2022-08-25T22:02:43.922Z,63.43
2022-08-25T22:05:11.780Z,64.44
2022-08-25T22:07:44.033Z,65.15
2022-08-25T22:10:17.661Z,65.01
2022-08-25T22:12:50.476Z,65.61
2022-08-25T22:15:18.297Z,65.63
2022-08-25T22:17:48.397Z,66.22
2022-08-25T22:20:18.136Z,66.94
2022-08-25T22:22:45.289Z,66.46
2022-08-25T22:25:13.105Z,66.63
2022-08-25T22:27:43.106Z,66.78
2022-08-25T22:30:14.014Z,67.55
2022-08-25T22:32:40.927Z,67.43
2022-08-25T22:35:08.786Z,68.67
2022-08-25T22:37:36.545Z,68.01
2022-08-25T22:40:07.319Z,68.81
2022-08-25T22:42:36.636Z,69.80
2022-08-25T22:45:06.151Z,70.55
2022-08-25T22:47:35.574Z,70.55
2022-08-25T22:50:02.925Z,70.31
2022-08-25T22:52:33.965Z,69.89
2022-08-25T22:55:02.890Z,70.29
2022-08-25T22:57:32.157Z,70.72
2022-08-25T22:59:59.291Z,70.49
2022-08-25T23:02:27.710Z,71.82
2022-08-25T23:05:02.338Z,72.25
2022-08-25T23:07:34.721Z,71.89
2022-08-25T23:10:03.505Z,71.91
2022-08-25T23:12:31.869Z,71.21
2022-08-25T23:15:04.385Z,72.41
2022-08-25T23:17:32.257Z,72.45
2022-08-25T23:20:21.247Z,72.08
2022-08-25T23:22:50.034Z,72.56
2022-08-25T23:25:21.588Z,73.46
2022-08-25T23:27:50.523Z,74.25
2022-08-25T23:30:18.931Z,75.62
2022-08-25T23:32:50.803Z,76.03
2022-08-25T23:35:17.803Z,75.83
2022-08-25T23:37:48.612Z,76.00
2022-08-25T23:40:19.548Z,76.66
2022-08-25T23:42:51.635Z,77.97
2022-08-25T23:45:18.623Z,77.60
2022-08-25T23:47:45.613Z,78.38
2022-08-25T23:50:12.670Z,78.76
2022-08-25T23:52:42.142Z,78.95
2022-08-25T23:55:09.862Z,78.37
2022-08-25T23:57:37.189Z,77.94
